Time;durP1;ratioP1;P1;durP2;ratioP2;P2;SDS_P1;SDS_P2;PMS_P1;PMS_P2;Temp;Humidity;BMP_temperature;BMP_pressure;BME280_temperature;BME280_humidity;BME280_pressure;Samples;Min_cycle;Max_cycle;Signal;HPM_P1;HPM_P2
2023/09/26 00:00:23;;;;;;;0.00;0.00;;;;;;;;;;4996823;28;20030;-83
2023/09/26 00:02:49;;;;;;;0.00;0.00;;;;;;;;;;4996309;28;20030;-82
2023/09/26 00:05:15;;;;;;;0.00;0.00;;;;;;;;;;4995301;28;20065;-84
2023/09/26 00:07:41;;;;;;;0.00;0.00;;;;;;;;;;4978998;28;20492;-83
2023/09/26 00:10:07;;;;;;;0.00;0.00;;;;;;;;;;4963092;28;20035;-83
2023/09/26 00:12:33;;;;;;;0.00;0.00;;;;;;;;;;4983527;28;20464;-83
2023/09/26 00:14:58;;;;;;;0.00;0.00;;;;;;;;;;4996864;28;20041;-83
2023/09/26 00:17:24;;;;;;;0.00;0.00;;;;;;;;;;4962570;28;20040;-83
2023/09/26 00:19:49;;;;;;;0.00;0.00;;;;;;;;;;4994858;28;20069;-84
2023/09/26 00:22:14;;;;;;;0.00;0.00;;;;;;;;;;4994601;28;20042;-83
2023/09/26 00:24:40;;;;;;;0.00;0.00;;;;;;;;;;5010843;28;20104;-84
2023/09/26 00:27:06;;;;;;;0.10;0.00;;;;;;;;;;4996160;28;20034;-83
2023/09/26 00:29:33;;;;;;;0.00;0.00;;;;;;;;;;4978397;28;20022;-83
2023/09/26 00:32:01;;;;;;;0.00;0.00;;;;;;;;;;4980406;28;20126;-84
2023/09/26 00:34:28;;;;;;;0.00;0.00;;;;;;;;;;4976479;28;20058;-84
2023/09/26 00:36:54;;;;;;;0.00;0.00;;;;;;;;;;4976515;28;20042;-83
2023/09/26 00:39:21;;;;;;;0.00;0.00;;;;;;;;;;4975133;28;20034;-83
2023/09/26 00:41:46;;;;;;;0.00;0.00;;;;;;;;;;4975188;28;20086;-83
2023/09/26 00:44:12;;;;;;;0.00;0.00;;;;;;;;;;5007294;28;20429;-84
2023/09/26 00:46:40;;;;;;;0.00;0.00;;;;;;;;;;4974884;28;20126;-84
2023/09/26 00:49:07;;;;;;;0.00;0.00;;;;;;;;;;4959531;28;20041;-83
2023/09/26 00:51:33;;;;;;;0.00;0.00;;;;;;;;;;4979085;28;20046;-83
2023/09/26 00:53:58;;;;;;;0.00;0.00;;;;;;;;;;4959610;28;20378;-83
2023/09/26 00:56:24;;;;;;;0.00;0.00;;;;;;;;;;4942977;28;20070;-83
2023/09/26 00:58:49;;;;;;;0.00;0.00;;;;;;;;;;4958755;28;20105;-83
2023/09/26 01:01:15;;;;;;;0.00;0.00;;;;;;;;;;4976165;28;20081;-83
2023/09/26 01:03:40;;;;;;;0.00;0.00;;;;;;;;;;4975232;28;20043;-83
2023/09/26 01:06:06;;;;;;;0.05;0.00;;;;;;;;;;4976580;28;20039;-83
2023/09/26 01:08:32;;;;;;;0.00;0.00;;;;;;;;;;4978139;28;20373;-83
2023/09/26 01:10:58;;;;;;;0.00;0.00;;;;;;;;;;4964394;28;20046;-83
2023/09/26 01:13:24;;;;;;;0.00;0.00;;;;;;;;;;4978769;28;20026;-84
2023/09/26 01:15:50;;;;;;;0.00;0.00;;;;;;;;;;4975885;28;20109;-84
2023/09/26 01:18:16;;;;;;;0.00;0.00;;;;;;;;;;4976690;28;20039;-83
2023/09/26 01:20:44;;;;;;;0.10;0.00;;;;;;;;;;4963989;28;20038;-83
2023/09/26 01:23:11;;;;;;;0.00;0.00;;;;;;;;;;4959607;28;20113;-84
2023/09/26 01:25:37;;;;;;;0.00;0.00;;;;;;;;;;4974067;28;20461;-83
2023/09/26 01:28:07;;;;;;;0.00;0.00;;;;;;;;;;4974217;28;20066;-84
2023/09/26 01:30:39;;;;;;;0.00;0.00;;;;;;;;;;4974638;28;20026;-83
2023/09/26 01:33:08;;;;;;;0.00;0.00;;;;;;;;;;4977347;28;20034;-84
2023/09/26 01:35:33;;;;;;;0.00;0.00;;;;;;;;;;4958534;28;20112;-84
2023/09/26 01:37:59;;;;;;;0.00;0.00;;;;;;;;;;4958316;28;20035;-84
2023/09/26 01:40:24;;;;;;;0.00;0.00;;;;;;;;;;4975534;28;20369;-84
2023/09/26 01:42:50;;;;;;;0.00;0.00;;;;;;;;;;4973985;28;20074;-84
2023/09/26 01:45:16;;;;;;;0.00;0.00;;;;;;;;;;4974190;28;20026;-84
2023/09/26 01:47:46;;;;;;;0.00;0.00;;;;;;;;;;4958272;28;20039;-84
2023/09/26 01:50:12;;;;;;;0.10;0.00;;;;;;;;;;4960518;28;20034;-84
2023/09/26 01:52:38;;;;;;;0.00;0.00;;;;;;;;;;4979377;28;20449;-83
2023/09/26 01:55:08;;;;;;;0.00;0.00;;;;;;;;;;4980560;28;20516;-83
2023/09/26 01:57:34;;;;;;;0.00;0.00;;;;;;;;;;4964297;28;20034;-83
2023/09/26 02:00:01;;;;;;;0.00;0.00;;;;;;;;;;4981779;28;20023;-82
2023/09/26 02:02:26;;;;;;;0.00;0.00;;;;;;;;;;4980433;28;20034;-82
2023/09/26 02:04:51;;;;;;;0.00;0.00;;;;;;;;;;4964606;28;20042;-82
2023/09/26 02:07:17;;;;;;;0.00;0.00;;;;;;;;;;4981715;28;20033;-83
2023/09/26 02:09:42;;;;;;;0.00;0.00;;;;;;;;;;4965247;28;20030;-83
2023/09/26 02:12:08;;;;;;;0.00;0.00;;;;;;;;;;4981700;28;20448;-83
2023/09/26 02:14:33;;;;;;;0.00;0.00;;;;;;;;;;4981057;28;20038;-83
2023/09/26 02:16:59;;;;;;;0.00;0.00;;;;;;;;;;4980116;28;20041;-82
2023/09/26 02:19:24;;;;;;;0.00;0.00;;;;;;;;;;4964050;28;20176;-82
2023/09/26 02:21:49;;;;;;;0.00;0.00;;;;;;;;;;4980452;28;20038;-82
2023/09/26 02:24:15;;;;;;;0.00;0.00;;;;;;;;;;4981881;28;20069;-82
2023/09/26 02:26:40;;;;;;;0.00;0.00;;;;;;;;;;4980561;28;20093;-82
2023/09/26 02:29:06;;;;;;;0.00;0.00;;;;;;;;;;4983745;28;20031;-82
2023/09/26 02:31:31;;;;;;;0.00;0.00;;;;;;;;;;4981968;28;20031;-82
2023/09/26 02:33:57;;;;;;;0.00;0.00;;;;;;;;;;5012623;28;20053;-82
2023/09/26 02:36:22;;;;;;;0.00;0.00;;;;;;;;;;4981249;28;20039;-81
2023/09/26 02:38:48;;;;;;;0.00;0.00;;;;;;;;;;4980427;28;20057;-82
2023/09/26 02:41:13;;;;;;;0.00;0.00;;;;;;;;;;4948036;28;20460;-82
2023/09/26 02:43:39;;;;;;;0.00;0.00;;;;;;;;;;4979905;28;20141;-81
2023/09/26 02:46:04;;;;;;;0.00;0.00;;;;;;;;;;4963927;28;20051;-81
2023/09/26 02:48:30;;;;;;;0.00;0.00;;;;;;;;;;4981214;28;20125;-82
2023/09/26 02:51:05;;;;;;;0.00;0.00;;;;;;;;;;4981501;28;20057;-82
2023/09/26 02:53:30;;;;;;;0.00;0.00;;;;;;;;;;4964299;28;20042;-82
2023/09/26 02:55:56;;;;;;;0.00;0.00;;;;;;;;;;4979577;28;20034;-83
2023/09/26 02:58:22;;;;;;;0.00;0.00;;;;;;;;;;4981318;28;20034;-83
2023/09/26 03:00:49;;;;;;;0.00;0.00;;;;;;;;;;4981391;28;20037;-83
2023/09/26 03:03:15;;;;;;;0.00;0.00;;;;;;;;;;4978156;28;20037;-83
2023/09/26 03:05:48;;;;;;;0.00;0.00;;;;;;;;;;4977620;28;20396;-82
2023/09/26 03:08:14;;;;;;;0.00;0.00;;;;;;;;;;4981113;28;20086;-83
2023/09/26 03:10:40;;;;;;;0.00;0.00;;;;;;;;;;4977486;28;20031;-82
2023/09/26 03:13:06;;;;;;;0.00;0.00;;;;;;;;;;4976435;28;20544;-81
2023/09/26 03:15:32;;;;;;;0.00;0.00;;;;;;;;;;4960636;28;20034;-82
2023/09/26 03:17:57;;;;;;;0.00;0.00;;;;;;;;;;4977831;28;20416;-83
2023/09/26 03:20:23;;;;;;;0.00;0.00;;;;;;;;;;4977664;28;20109;-82
2023/09/26 03:22:49;;;;;;;0.00;0.00;;;;;;;;;;4976667;28;20039;-83
2023/09/26 03:25:14;;;;;;;0.00;0.00;;;;;;;;;;4979088;28;20046;-83
2023/09/26 03:27:41;;;;;;;0.00;0.00;;;;;;;;;;4979114;28;20038;-82
2023/09/26 03:30:08;;;;;;;0.00;0.00;;;;;;;;;;4960612;28;20189;-82
2023/09/26 03:32:33;;;;;;;0.00;0.00;;;;;;;;;;4976411;28;20039;-83
2023/09/26 03:34:59;;;;;;;0.00;0.00;;;;;;;;;;4976150;28;20104;-83
2023/09/26 03:37:24;;;;;;;0.00;0.00;;;;;;;;;;4977589;28;20476;-83
2023/09/26 03:39:49;;;;;;;0.00;0.00;;;;;;;;;;4977095;28;20071;-82
2023/09/26 03:42:15;;;;;;;0.00;0.00;;;;;;;;;;4976090;28;20034;-82
2023/09/26 03:44:44;;;;;;;0.00;0.00;;;;;;;;;;4977419;28;20039;-81
2023/09/26 03:47:09;;;;;;;0.00;0.00;;;;;;;;;;4978326;28;20031;-82
2023/09/26 03:49:35;;;;;;;0.00;0.00;;;;;;;;;;4960282;28;20035;-82
2023/09/26 03:52:00;;;;;;;0.00;0.00;;;;;;;;;;4977249;28;20035;-82
2023/09/26 03:54:27;;;;;;;0.00;0.00;;;;;;;;;;4975981;28;20129;-82
2023/09/26 03:56:53;;;;;;;0.00;0.00;;;;;;;;;;4959639;28;20054;-82
2023/09/26 03:59:19;;;;;;;0.00;0.00;;;;;;;;;;4959897;28;20420;-82
2023/09/26 04:01:47;;;;;;;0.00;0.00;;;;;;;;;;4960004;28;20122;-82
2023/09/26 04:04:12;;;;;;;0.05;0.00;;;;;;;;;;4976709;28;20030;-82
2023/09/26 04:06:38;;;;;;;0.00;0.00;;;;;;;;;;4984154;28;20041;-82
2023/09/26 04:09:04;;;;;;;0.00;0.00;;;;;;;;;;4976797;28;20034;-83
2023/09/26 04:11:29;;;;;;;0.00;0.00;;;;;;;;;;4977316;28;20035;-82
2023/09/26 04:13:55;;;;;;;0.00;0.00;;;;;;;;;;4975804;28;20169;-82
2023/09/26 04:16:20;;;;;;;0.00;0.00;;;;;;;;;;4942961;28;20340;-82
2023/09/26 04:18:46;;;;;;;0.00;0.00;;;;;;;;;;4959463;28;20030;-82
2023/09/26 04:21:11;;;;;;;0.00;0.00;;;;;;;;;;4975711;28;20035;-81
2023/09/26 04:23:38;;;;;;;0.00;0.00;;;;;;;;;;4975700;28;20022;-82
2023/09/26 04:26:14;;;;;;;0.00;0.00;;;;;;;;;;4977043;28;20034;-82
2023/09/26 04:28:43;;;;;;;0.00;0.00;;;;;;;;;;4959122;28;20121;-82
2023/09/26 04:31:13;;;;;;;0.00;0.00;;;;;;;;;;4976289;28;20169;-82
2023/09/26 04:33:38;;;;;;;;;;;;;;;;;;4979549;28;20392;-82
2023/09/26 04:36:07;;;;;;;0.00;0.00;;;;;;;;;;4999996;28;19914;-91
2023/09/26 04:41:58;;;;;;;0.00;0.00;;;;;;;;;;4903096;29;20416;-85
2023/09/26 04:45:43;;;;;;;0.00;0.00;;;;;;;;;;4925643;29;20122;-88
2023/09/26 04:49:16;;;;;;;;;;;;;;;;;;;;;
2023/09/26 05:09:32;;;;;;;0.00;0.00;;;;;;;;;;4991886;28;20164;-89
2023/09/26 05:12:48;;;;;;;0.00;0.00;;;;;;;;;;4995682;28;20042;-91
2023/09/26 05:48:21;;;;;;;0.00;0.00;;;;;;;;;;5822732;23;20739;-83
2023/09/26 05:53:38;;;;;;;0.00;0.00;;;;;;;;;;4975590;28;20102;-78
2023/09/26 05:56:03;;;;;;;0.00;0.00;;;;;;;;;;4985962;28;20491;-81
2023/09/26 05:58:31;;;;;;;0.03;0.00;;;;;;;;;;4972601;28;20030;-75
2023/09/26 06:00:57;;;;;;;0.00;0.00;;;;;;;;;;4948322;28;20481;-77
2023/09/26 06:03:33;;;;;;;0.00;0.00;;;;;;;;;;4950080;28;20034;-78
2023/09/26 06:06:02;;;;;;;0.00;0.00;;;;;;;;;;4949675;28;20104;-78
2023/09/26 06:08:28;;;;;;;0.00;0.00;;;;;;;;;;4953580;28;20043;-76
2023/09/26 06:10:53;;;;;;;0.03;0.00;;;;;;;;;;4955208;28;20108;-80
2023/09/26 06:13:19;;;;;;;0.00;0.00;;;;;;;;;;4970272;28;20433;-76
2023/09/26 06:18:54;;;;;;;0.03;0.00;;;;;;;;;;4991507;23;20121;-79
2023/09/26 06:21:26;;;;;;;0.00;0.00;;;;;;;;;;5062076;23;20051;-82
2023/09/26 06:23:52;;;;;;;0.00;0.00;;;;;;;;;;4972455;28;20070;-79
2023/09/26 06:26:19;;;;;;;0.00;0.00;;;;;;;;;;4965287;28;20079;-78
2023/09/26 06:28:55;;;;;;;0.00;0.00;;;;;;;;;;4921550;29;20047;-76
2023/09/26 06:31:20;;;;;;;0.00;0.00;;;;;;;;;;4936630;28;20039;-76
2023/09/26 06:33:46;;;;;;;0.00;0.00;;;;;;;;;;4961930;28;20046;-77
2023/09/26 06:36:18;;;;;;;0.00;0.00;;;;;;;;;;4935694;29;20057;-76
2023/09/26 06:39:24;;;;;;;0.00;0.00;;;;;;;;;;4943195;28;20125;-80
2023/09/26 06:41:50;;;;;;;0.00;0.00;;;;;;;;;;4940433;29;20070;-77
2023/09/26 06:44:15;;;;;;;0.00;0.00;;;;;;;;;;4956808;29;20176;-78
2023/09/26 06:46:41;;;;;;;0.00;0.00;;;;;;;;;;4941059;29;20055;-80
2023/09/26 06:49:07;;;;;;;0.00;0.00;;;;;;;;;;4956375;29;20058;-80
2023/09/26 06:51:35;;;;;;;0.00;0.00;;;;;;;;;;4973483;28;20445;-79
2023/09/26 06:54:10;;;;;;;0.00;0.00;;;;;;;;;;4946678;28;20145;-78
2023/09/26 06:56:38;;;;;;;0.00;0.00;;;;;;;;;;4946814;28;20106;-78
2023/09/26 07:02:51;;;;;;;0.00;0.00;;;;;;;;;;4953224;29;20095;-80
2023/09/26 07:05:17;;;;;;;0.00;0.00;;;;;;;;;;4950227;29;20039;-79
2023/09/26 07:07:42;;;;;;;0.00;0.00;;;;;;;;;;4952364;28;20104;-76
2023/09/26 07:10:10;;;;;;;0.00;0.00;;;;;;;;;;4960631;28;20380;-77
2023/09/26 07:12:37;;;;;;;0.00;0.00;;;;;;;;;;4949971;28;20457;-76
2023/09/26 07:15:02;;;;;;;0.00;0.00;;;;;;;;;;4935309;29;20113;-75
2023/09/26 07:17:28;;;;;;;0.10;0.10;;;;;;;;;;4929805;29;20489;-78
2023/09/26 07:19:54;;;;;;;0.10;0.10;;;;;;;;;;4948272;29;20039;-80
2023/09/26 07:22:20;;;;;;;0.00;0.00;;;;;;;;;;4947000;28;20418;-78
2023/09/26 07:24:49;;;;;;;0.00;0.00;;;;;;;;;;4970097;28;20038;-76
2023/09/26 07:27:15;;;;;;;0.00;0.00;;;;;;;;;;4959489;28;20117;-77
2023/09/26 07:29:44;;;;;;;0.00;0.00;;;;;;;;;;4952308;28;20027;-79
2023/09/26 07:32:09;;;;;;;0.00;0.00;;;;;;;;;;4981039;28;20311;-77
2023/09/26 07:34:36;;;;;;;0.00;0.00;;;;;;;;;;4971865;28;20037;-76
2023/09/26 07:37:02;;;;;;;0.00;0.00;;;;;;;;;;4969615;28;20031;-76
2023/09/26 07:39:28;;;;;;;0.00;0.00;;;;;;;;;;4985269;28;20748;-78
2023/09/26 07:41:53;;;;;;;0.00;0.00;;;;;;;;;;4971579;28;20034;-78
2023/09/26 07:44:19;;;;;;;0.00;0.00;;;;;;;;;;4971181;28;20520;-78
2023/09/26 07:46:44;;;;;;;0.00;0.00;;;;;;;;;;4970913;28;20034;-76
2023/09/26 07:49:10;;;;;;;0.00;0.00;;;;;;;;;;4971178;28;20121;-76
2023/09/26 07:51:38;;;;;;;0.00;0.00;;;;;;;;;;4971112;28;20482;-75
2023/09/26 07:54:04;;;;;;;0.00;0.00;;;;;;;;;;4971240;28;20451;-76
2023/09/26 07:56:30;;;;;;;0.00;0.00;;;;;;;;;;4954021;28;20074;-76
2023/09/26 07:58:55;;;;;;;0.00;0.00;;;;;;;;;;4972649;28;20051;-76
2023/09/26 08:01:25;;;;;;;0.00;0.00;;;;;;;;;;4969067;28;20472;-75
2023/09/26 08:03:50;;;;;;;;;;;;;;;;;;4970096;28;20062;-78
2023/09/26 08:06:16;;;;;;;0.00;0.00;;;;;;;;;;4972426;28;20048;-76
2023/09/26 08:08:42;;;;;;;0.00;0.00;;;;;;;;;;4969042;28;20100;-78
2023/09/26 08:11:11;;;;;;;0.00;0.00;;;;;;;;;;4955036;28;20035;-76
2023/09/26 08:13:39;;;;;;;0.00;0.00;;;;;;;;;;4971716;28;20027;-79
2023/09/26 08:16:05;;;;;;;0.00;0.00;;;;;;;;;;4984681;28;20027;-80
2023/09/26 08:18:30;;;;;;;0.00;0.00;;;;;;;;;;4971772;28;20037;-76
2023/09/26 08:21:35;;;;;;;0.00;0.00;;;;;;;;;;4986905;28;20031;-76
2023/09/26 08:24:03;;;;;;;0.00;0.00;;;;;;;;;;4951612;29;20465;-77
2023/09/26 08:26:29;;;;;;;0.00;0.00;;;;;;;;;;4951716;29;20035;-77
2023/09/26 08:29:05;;;;;;;0.00;0.00;;;;;;;;;;4952310;29;20484;-77
2023/09/26 08:49:56;;;;;;;0.00;0.00;;;;;;;;;;4989033;28;19925;-75
2023/09/26 08:52:25;;;;;;;0.00;0.00;;;;;;;;;;4991219;28;20043;-76
2023/09/26 08:54:50;;;;;;;0.00;0.00;;;;;;;;;;4986136;28;20121;-76
2023/09/26 08:57:19;;;;;;;0.00;0.00;;;;;;;;;;4977195;28;20128;-80
2023/09/26 08:59:46;;;;;;;0.00;0.00;;;;;;;;;;4967362;28;20038;-78
2023/09/26 09:02:12;;;;;;;0.00;0.00;;;;;;;;;;4989024;28;20417;-78
2023/09/26 09:04:46;;;;;;;0.00;0.00;;;;;;;;;;4989481;28;20057;-78
2023/09/26 09:07:12;;;;;;;0.00;0.00;;;;;;;;;;5006011;28;20038;-85
2023/09/26 09:09:38;;;;;;;0.00;0.00;;;;;;;;;;5000711;28;20125;-84
2023/09/26 09:12:22;;;;;;;0.00;0.00;;;;;;;;;;4977516;28;20133;-84
2023/09/26 09:14:48;;;;;;;0.00;0.00;;;;;;;;;;4966353;28;20177;-86
2023/09/26 09:17:13;;;;;;;0.00;0.00;;;;;;;;;;4980646;28;20050;-85
2023/09/26 09:19:52;;;;;;;0.00;0.00;;;;;;;;;;5009554;28;20056;-86
2023/09/26 09:22:24;;;;;;;0.00;0.00;;;;;;;;;;5013576;28;20118;-86
2023/09/26 09:24:53;;;;;;;0.00;0.00;;;;;;;;;;4996107;28;20038;-87
2023/09/26 09:27:32;;;;;;;0.00;0.00;;;;;;;;;;4994156;28;20053;-87
2023/09/26 09:30:04;;;;;;;0.00;0.00;;;;;;;;;;5003049;28;20042;-78
2023/09/26 09:32:29;;;;;;;0.00;0.00;;;;;;;;;;4961882;28;20396;-81
2023/09/26 09:34:55;;;;;;;0.00;0.00;;;;;;;;;;4994486;28;20037;-77
2023/09/26 09:37:22;;;;;;;0.00;0.00;;;;;;;;;;4991655;28;20061;-76
2023/09/26 09:39:48;;;;;;;0.00;0.00;;;;;;;;;;4979540;28;20038;-80
2023/09/26 09:42:13;;;;;;;0.00;0.00;;;;;;;;;;4993547;28;20144;-78
2023/09/26 09:44:39;;;;;;;0.00;0.00;;;;;;;;;;4976065;28;20034;-78
2023/09/26 09:47:07;;;;;;;0.00;0.00;;;;;;;;;;4990957;28;20042;-78
2023/09/26 09:49:33;;;;;;;0.00;0.00;;;;;;;;;;4976961;28;20109;-75
2023/09/26 09:52:02;;;;;;;0.00;0.00;;;;;;;;;;4968899;28;20363;-80
2023/09/26 09:54:28;;;;;;;0.00;0.00;;;;;;;;;;4973011;28;20043;-77
2023/09/26 09:56:54;;;;;;;0.00;0.00;;;;;;;;;;4952730;28;20097;-78
2023/09/26 09:59:21;;;;;;;0.00;0.00;;;;;;;;;;4939962;28;20433;-78
2023/09/26 10:01:50;;;;;;;0.00;0.00;;;;;;;;;;4958106;28;20037;-78
2023/09/26 10:04:16;;;;;;;0.00;0.00;;;;;;;;;;4973156;28;20043;-80
2023/09/26 10:06:42;;;;;;;0.00;0.00;;;;;;;;;;4972088;28;20047;-77
2023/09/26 10:09:08;;;;;;;0.00;0.00;;;;;;;;;;4973294;28;20102;-80
2023/09/26 10:11:33;;;;;;;0.00;0.00;;;;;;;;;;4954521;28;20027;-78
2023/09/26 10:13:59;;;;;;;0.00;0.00;;;;;;;;;;4959074;28;20511;-80
2023/09/26 10:16:25;;;;;;;0.00;0.00;;;;;;;;;;4959933;28;20138;-78
2023/09/26 10:18:51;;;;;;;0.00;0.00;;;;;;;;;;4959606;28;20472;-80
2023/09/26 10:21:30;;;;;;;0.00;0.00;;;;;;;;;;4959819;28;20030;-78
2023/09/26 10:24:05;;;;;;;0.00;0.00;;;;;;;;;;4977855;28;20512;-79
2023/09/26 10:26:31;;;;;;;0.00;0.00;;;;;;;;;;4978066;28;20043;-78
2023/09/26 10:29:19;;;;;;;0.00;0.00;;;;;;;;;;4978734;28;20030;-79
2023/09/26 10:31:53;;;;;;;0.10;0.00;;;;;;;;;;4978845;28;20030;-78
2023/09/26 10:34:33;;;;;;;0.00;0.00;;;;;;;;;;4964192;28;20039;-80
2023/09/26 10:37:07;;;;;;;0.00;0.00;;;;;;;;;;4964671;28;20030;-75
2023/09/26 10:39:39;;;;;;;0.00;0.00;;;;;;;;;;4964916;28;20380;-75
2023/09/26 10:42:12;;;;;;;0.00;0.00;;;;;;;;;;4943570;28;20038;-77
2023/09/26 10:44:39;;;;;;;0.00;0.00;;;;;;;;;;4955093;28;20030;-77
2023/09/26 10:47:05;;;;;;;0.00;0.00;;;;;;;;;;4961074;28;20137;-77
2023/09/26 10:49:34;;;;;;;0.00;0.00;;;;;;;;;;4969862;28;20148;-77
2023/09/26 10:52:03;;;;;;;0.00;0.00;;;;;;;;;;4978270;28;20120;-76
2023/09/26 10:54:30;;;;;;;0.00;0.00;;;;;;;;;;4977912;28;20042;-78
2023/09/26 10:56:59;;;;;;;0.00;0.00;;;;;;;;;;4996135;28;20099;-78
2023/09/26 10:59:31;;;;;;;0.00;0.00;;;;;;;;;;5014751;28;20029;-79
2023/09/26 11:01:57;;;;;;;0.00;0.00;;;;;;;;;;4976508;28;20277;-79
2023/09/26 11:07:55;;;;;;;0.00;0.00;;;;;;;;;;4976163;28;20153;-78
2023/09/26 11:10:20;;;;;;;0.00;0.00;;;;;;;;;;4973192;28;20226;-78
2023/09/26 11:12:46;;;;;;;0.00;0.00;;;;;;;;;;4993777;28;20030;-79
2023/09/26 11:15:11;;;;;;;0.00;0.00;;;;;;;;;;4977927;28;20076;-75
2023/09/26 11:17:37;;;;;;;0.00;0.00;;;;;;;;;;4986954;28;20448;-77
2023/09/26 11:20:06;;;;;;;0.00;0.00;;;;;;;;;;4979835;28;20034;-77
2023/09/26 11:22:47;;;;;;;0.00;0.00;;;;;;;;;;4976873;28;20059;-77
2023/09/26 11:25:13;;;;;;;0.00;0.00;;;;;;;;;;4981281;28;20023;-76
2023/09/26 11:27:39;;;;;;;0.00;0.00;;;;;;;;;;4994182;28;20096;-74
2023/09/26 11:30:10;;;;;;;0.00;0.00;;;;;;;;;;4994517;28;20152;-76
2023/09/26 11:32:35;;;;;;;0.00;0.00;;;;;;;;;;4993309;28;20026;-76
2023/09/26 11:35:01;;;;;;;0.00;0.00;;;;;;;;;;4991852;28;20045;-76
2023/09/26 11:37:30;;;;;;;0.00;0.00;;;;;;;;;;4976472;28;20411;-75
2023/09/26 11:39:56;;;;;;;0.00;0.00;;;;;;;;;;4960626;28;20033;-76
2023/09/26 11:42:21;;;;;;;0.00;0.00;;;;;;;;;;4993868;28;20034;-76
2023/09/26 11:44:54;;;;;;;0.00;0.00;;;;;;;;;;4977411;28;20030;-75
2023/09/26 11:47:24;;;;;;;0.00;0.00;;;;;;;;;;4993299;28;20089;-74
2023/09/26 11:49:51;;;;;;;0.00;0.00;;;;;;;;;;4993907;28;20054;-76
2023/09/26 11:52:16;;;;;;;0.00;0.00;;;;;;;;;;4994221;28;20034;-76
2023/09/26 11:54:42;;;;;;;0.00;0.00;;;;;;;;;;4976250;28;20542;-76
2023/09/26 11:57:08;;;;;;;0.00;0.00;;;;;;;;;;4993829;28;20812;-76
2023/09/26 11:59:33;;;;;;;0.00;0.00;;;;;;;;;;4976629;28;20097;-77
2023/09/26 12:02:00;;;;;;;0.00;0.00;;;;;;;;;;4977429;28;20060;-74
2023/09/26 12:04:25;;;;;;;0.00;0.00;;;;;;;;;;4996787;28;20045;-77
2023/09/26 12:06:51;;;;;;;0.00;0.00;;;;;;;;;;4995833;28;20034;-76
2023/09/26 12:09:20;;;;;;;0.00;0.00;;;;;;;;;;4980130;28;20069;-76
2023/09/26 12:11:50;;;;;;;0.00;0.00;;;;;;;;;;4977055;28;20031;-77
2023/09/26 12:14:17;;;;;;;0.00;0.00;;;;;;;;;;4976808;28;20081;-76
2023/09/26 12:16:44;;;;;;;0.00;0.00;;;;;;;;;;4976295;28;20369;-77
2023/09/26 12:19:10;;;;;;;0.00;0.00;;;;;;;;;;4977029;28;20125;-76
2023/09/26 12:21:37;;;;;;;0.00;0.00;;;;;;;;;;4976248;28;20035;-77
2023/09/26 12:24:02;;;;;;;0.00;0.00;;;;;;;;;;4976629;28;20027;-76
2023/09/26 12:26:28;;;;;;;0.00;0.00;;;;;;;;;;4976582;28;20130;-77
2023/09/26 12:28:53;;;;;;;0.00;0.00;;;;;;;;;;4977654;28;20031;-76
2023/09/26 12:31:19;;;;;;;0.00;0.00;;;;;;;;;;4976756;28;20053;-76
2023/09/26 12:33:44;;;;;;;0.00;0.00;;;;;;;;;;4975209;28;20189;-77
2023/09/26 12:36:11;;;;;;;0.00;0.00;;;;;;;;;;4957985;28;20046;-77
2023/09/26 12:38:37;;;;;;;0.00;0.00;;;;;;;;;;4958420;28;20030;-76
2023/09/26 12:41:02;;;;;;;0.00;0.00;;;;;;;;;;4976077;28;20089;-76
2023/09/26 12:43:28;;;;;;;0.00;0.00;;;;;;;;;;4975431;28;20060;-76
2023/09/26 12:45:53;;;;;;;0.00;0.00;;;;;;;;;;4976283;28;20038;-76
2023/09/26 12:48:19;;;;;;;0.00;0.00;;;;;;;;;;4977826;28;20042;-76
2023/09/26 12:50:45;;;;;;;0.00;0.00;;;;;;;;;;4995020;28;20045;-77
2023/09/26 12:53:10;;;;;;;0.00;0.00;;;;;;;;;;4977986;28;20034;-77
2023/09/26 12:55:37;;;;;;;0.00;0.00;;;;;;;;;;4978159;28;20360;-77
2023/09/26 12:58:03;;;;;;;0.00;0.00;;;;;;;;;;4995524;28;20069;-77
2023/09/26 13:00:29;;;;;;;0.00;0.00;;;;;;;;;;4995088;28;20035;-77
2023/09/26 13:02:55;;;;;;;0.00;0.00;;;;;;;;;;4995388;28;20034;-77
2023/09/26 13:05:21;;;;;;;0.00;0.00;;;;;;;;;;4978150;28;20420;-77
2023/09/26 13:07:47;;;;;;;0.00;0.00;;;;;;;;;;4978186;28;20039;-77
2023/09/26 13:10:12;;;;;;;0.00;0.00;;;;;;;;;;4987416;28;20089;-77
2023/09/26 13:12:38;;;;;;;0.00;0.00;;;;;;;;;;4977278;28;20022;-77
2023/09/26 13:15:08;;;;;;;0.00;0.00;;;;;;;;;;4958324;28;20033;-77
2023/09/26 13:17:34;;;;;;;0.00;0.00;;;;;;;;;;4975808;28;20030;-76
2023/09/26 13:20:00;;;;;;;0.00;0.00;;;;;;;;;;4958337;28;20443;-76
2023/09/26 13:22:26;;;;;;;0.00;0.00;;;;;;;;;;4975791;28;20038;-78
2023/09/26 13:24:52;;;;;;;0.00;0.00;;;;;;;;;;4958805;28;20026;-76
2023/09/26 13:27:17;;;;;;;0.00;0.00;;;;;;;;;;4975863;28;20035;-77
2023/09/26 13:29:43;;;;;;;0.00;0.00;;;;;;;;;;4975989;28;20030;-79
2023/09/26 13:32:08;;;;;;;0.00;0.00;;;;;;;;;;4976026;28;20023;-78
2023/09/26 13:34:34;;;;;;;0.00;0.00;;;;;;;;;;4975973;28;20023;-78
2023/09/26 13:36:59;;;;;;;0.00;0.00;;;;;;;;;;4975660;28;20038;-76
2023/09/26 13:39:25;;;;;;;0.00;0.00;;;;;;;;;;4975615;28;20026;-76
2023/09/26 13:41:51;;;;;;;0.00;0.00;;;;;;;;;;4958492;28;20027;-77
2023/09/26 13:44:16;;;;;;;0.00;0.00;;;;;;;;;;4975799;28;20089;-75
2023/09/26 13:46:42;;;;;;;0.00;0.00;;;;;;;;;;4975255;28;20034;-77
2023/09/26 13:49:08;;;;;;;0.00;0.00;;;;;;;;;;4972213;28;20057;-77
2023/09/26 13:51:34;;;;;;;0.00;0.00;;;;;;;;;;4993490;28;20040;-79
2023/09/26 13:53:59;;;;;;;0.00;0.00;;;;;;;;;;4993722;28;20406;-78
2023/09/26 13:56:25;;;;;;;0.00;0.00;;;;;;;;;;4976769;28;20037;-78
2023/09/26 13:58:50;;;;;;;0.00;0.00;;;;;;;;;;5012188;28;20070;-77
2023/09/26 14:01:16;;;;;;;0.00;0.00;;;;;;;;;;4994272;28;20031;-78
2023/09/26 14:03:45;;;;;;;0.00;0.00;;;;;;;;;;4993741;28;20096;-76
2023/09/26 14:06:11;;;;;;;0.00;0.00;;;;;;;;;;4976524;28;20033;-78
2023/09/26 14:08:39;;;;;;;0.00;0.00;;;;;;;;;;4994345;28;20030;-78
2023/09/26 14:11:05;;;;;;;0.00;0.00;;;;;;;;;;4976421;28;20030;-78
2023/09/26 14:13:32;;;;;;;0.00;0.00;;;;;;;;;;4994187;28;20030;-80
2023/09/26 14:15:57;;;;;;;0.00;0.00;;;;;;;;;;4976527;28;20368;-77
2023/09/26 14:18:23;;;;;;;0.00;0.00;;;;;;;;;;4993472;28;20027;-78
2023/09/26 14:20:51;;;;;;;0.00;0.00;;;;;;;;;;4993599;28;20113;-77
2023/09/26 14:23:26;;;;;;;0.00;0.00;;;;;;;;;;4993871;28;20108;-77
2023/09/26 14:25:52;;;;;;;0.00;0.00;;;;;;;;;;4993758;28;20045;-77
2023/09/26 14:28:18;;;;;;;0.00;0.00;;;;;;;;;;5008770;28;20053;-77
2023/09/26 14:30:43;;;;;;;0.00;0.00;;;;;;;;;;4993416;28;20030;-78
2023/09/26 14:33:09;;;;;;;0.00;0.00;;;;;;;;;;4993086;28;20022;-77
2023/09/26 14:35:34;;;;;;;0.00;0.00;;;;;;;;;;4981332;28;20424;-76
2023/09/26 14:38:00;;;;;;;0.00;0.00;;;;;;;;;;4975547;28;20056;-77
2023/09/26 14:40:25;;;;;;;0.00;0.00;;;;;;;;;;4976037;28;20059;-78
2023/09/26 14:42:50;;;;;;;0.00;0.00;;;;;;;;;;4974841;28;20034;-77
2023/09/26 14:45:16;;;;;;;0.00;0.00;;;;;;;;;;4972536;28;20027;-77
2023/09/26 14:47:42;;;;;;;0.00;0.00;;;;;;;;;;4907086;28;1940800;-77
2023/09/26 14:50:08;;;;;;;0.00;0.00;;;;;;;;;;4993832;28;20149;-77
2023/09/26 14:52:35;;;;;;;0.00;0.00;;;;;;;;;;4975604;28;20036;-79
2023/09/26 14:55:00;;;;;;;0.00;0.00;;;;;;;;;;4960367;28;20043;-77
2023/09/26 14:57:26;;;;;;;0.00;0.00;;;;;;;;;;4993745;28;20445;-77
2023/09/26 14:59:52;;;;;;;0.00;0.00;;;;;;;;;;4978704;28;20042;-77
2023/09/26 15:02:17;;;;;;;0.00;0.00;;;;;;;;;;4997322;28;20034;-77
2023/09/26 15:04:42;;;;;;;0.00;0.00;;;;;;;;;;4997424;28;20421;-76
2023/09/26 15:07:08;;;;;;;0.00;0.00;;;;;;;;;;4997100;28;20038;-77
2023/09/26 15:09:33;;;;;;;0.00;0.00;;;;;;;;;;4997612;28;20030;-77
2023/09/26 15:11:59;;;;;;;0.00;0.00;;;;;;;;;;4997892;28;20114;-77
2023/09/26 15:14:24;;;;;;;0.00;0.00;;;;;;;;;;4997445;28;20445;-78
2023/09/26 15:16:50;;;;;;;0.00;0.00;;;;;;;;;;4996193;28;20038;-78
2023/09/26 15:19:15;;;;;;;0.00;0.00;;;;;;;;;;4997915;28;20038;-79
2023/09/26 15:21:41;;;;;;;0.00;0.00;;;;;;;;;;4998069;28;20043;-78
2023/09/26 15:24:06;;;;;;;0.00;0.00;;;;;;;;;;4999795;28;20036;-78
2023/09/26 15:26:32;;;;;;;0.00;0.00;;;;;;;;;;4999738;28;20518;-78
2023/09/26 15:28:58;;;;;;;0.00;0.00;;;;;;;;;;4997802;28;20125;-78
2023/09/26 15:31:24;;;;;;;0.00;0.00;;;;;;;;;;4997372;28;20452;-78
2023/09/26 15:33:49;;;;;;;0.00;0.00;;;;;;;;;;4997677;28;20034;-79
2023/09/26 15:36:15;;;;;;;0.00;0.00;;;;;;;;;;4997302;28;20034;-77
2023/09/26 15:38:40;;;;;;;0.00;0.00;;;;;;;;;;4997159;28;20033;-76
2023/09/26 15:41:16;;;;;;;0.00;0.00;;;;;;;;;;4995908;28;20048;-76
2023/09/26 15:43:42;;;;;;;0.00;0.00;;;;;;;;;;4996310;28;20470;-76
2023/09/26 15:46:07;;;;;;;0.00;0.00;;;;;;;;;;4997010;28;20034;-79
2023/09/26 15:48:33;;;;;;;0.00;0.00;;;;;;;;;;5005555;28;20038;-79
2023/09/26 15:50:59;;;;;;;0.00;0.00;;;;;;;;;;5016747;28;20030;-79
2023/09/26 15:53:24;;;;;;;0.00;0.00;;;;;;;;;;5002568;28;20037;-78
2023/09/26 15:55:50;;;;;;;0.00;0.00;;;;;;;;;;4997130;28;20448;-80
2023/09/26 15:58:15;;;;;;;0.00;0.00;;;;;;;;;;4996868;28;20041;-78
2023/09/26 16:00:41;;;;;;;0.00;0.00;;;;;;;;;;4995363;28;20030;-76
2023/09/26 16:03:10;;;;;;;0.00;0.00;;;;;;;;;;4979587;28;20082;-80
2023/09/26 16:05:36;;;;;;;0.00;0.00;;;;;;;;;;4993288;28;20022;-77
2023/09/26 16:08:02;;;;;;;0.00;0.00;;;;;;;;;;4986347;28;20034;-86
2023/09/26 16:10:27;;;;;;;0.00;0.00;;;;;;;;;;4985515;28;20044;-85
2023/09/26 16:12:52;;;;;;;0.20;0.00;;;;;;;;;;5009368;28;20033;-86